createdAt,value
2018-04-10T00:02:19.136Z,20.67
2018-04-10T00:04:47.394Z,20.07
2018-04-10T00:07:15.643Z,20.53
2018-04-10T00:09:43.916Z,17.33
2018-04-10T00:12:12.937Z,21.33
2018-04-10T00:14:41.188Z,16.57
2018-04-10T00:17:10.216Z,17.80
2018-04-10T00:19:38.469Z,23.00
2018-04-10T00:22:06.731Z,17.87
2018-04-10T00:24:35.762Z,20.83
2018-04-10T00:27:04.014Z,20.50
2018-04-10T00:29:32.276Z,16.00
2018-04-10T00:32:00.541Z,19.50
2018-04-10T00:34:29.560Z,17.60
2018-04-10T00:36:57.806Z,17.10
2018-04-10T00:39:26.838Z,18.67
2018-04-10T00:41:55.089Z,25.03
2018-04-10T00:44:24.120Z,16.27
2018-04-10T00:46:52.372Z,19.30
2018-04-10T00:49:20.631Z,18.53
2018-04-10T00:51:49.651Z,15.27
2018-04-10T00:54:17.913Z,17.20
2018-04-10T00:56:46.164Z,18.47
2018-04-10T00:59:15.182Z,17.67
2018-04-10T01:01:43.438Z,18.00
2018-04-10T01:04:12.461Z,17.10
2018-04-10T01:06:40.717Z,18.83
2018-04-10T01:09:08.980Z,21.27
2018-04-10T01:11:38.009Z,16.00
2018-04-10T01:14:06.270Z,20.90
2018-04-10T01:16:34.525Z,23.93
2018-04-10T01:19:03.568Z,29.43
2018-04-10T01:21:31.831Z,23.13
2018-04-10T01:24:00.079Z,23.50
2018-04-10T01:26:29.113Z,19.47
2018-04-10T01:28:57.367Z,18.57
2018-04-10T01:31:25.629Z,18.97
2018-04-10T01:33:53.887Z,19.77
2018-04-10T01:36:22.921Z,19.23
2018-04-10T01:38:51.173Z,21.13
2018-04-10T01:41:19.439Z,20.10
2018-04-10T01:43:48.468Z,22.93
2018-04-10T01:46:17.308Z,18.43
2018-04-10T01:48:45.567Z,23.27
2018-04-10T01:51:13.835Z,23.53
2018-04-10T01:53:42.086Z,21.97
2018-04-10T01:56:10.342Z,23.40
2018-04-10T01:58:38.604Z,23.70
2018-04-10T02:01:07.625Z,23.77
2018-04-10T02:03:35.889Z,22.37
2018-04-10T02:06:04.145Z,25.13
2018-04-10T02:08:33.172Z,26.80
2018-04-10T02:11:01.420Z,22.30
2018-04-10T02:13:29.687Z,20.23
2018-04-10T02:15:58.716Z,23.33
2018-04-10T02:18:26.978Z,28.67
2018-04-10T02:20:55.230Z,20.73
2018-04-10T02:23:24.251Z,27.00
2018-04-10T02:25:52.508Z,24.97
2018-04-10T02:28:21.537Z,22.07
2018-04-10T02:30:49.801Z,22.33
2018-04-10T02:33:18.054Z,28.43
2018-04-10T02:35:47.084Z,26.70
2018-04-10T02:38:15.335Z,31.70
2018-04-10T02:40:43.592Z,24.63
2018-04-10T02:43:12.611Z,24.93
2018-04-10T02:45:40.869Z,27.00
2018-04-10T02:48:09.127Z,23.50
2018-04-10T02:50:38.263Z,23.60
2018-04-10T02:53:06.507Z,29.67
2018-04-10T02:55:35.533Z,21.47
2018-04-10T02:58:03.792Z,22.20
2018-04-10T03:00:32.084Z,23.70
2018-04-10T03:03:00.327Z,19.70
2018-04-10T03:05:29.355Z,23.93
2018-04-10T03:07:57.608Z,20.90
2018-04-10T03:10:25.875Z,22.17
2018-04-10T03:12:54.898Z,22.27
2018-04-10T03:15:23.160Z,21.43
2018-04-10T03:17:51.423Z,31.50
2018-04-10T03:20:19.684Z,24.47
2018-04-10T03:22:48.721Z,21.30
2018-04-10T03:25:16.984Z,24.43
2018-04-10T03:27:45.244Z,22.33
2018-04-10T03:30:14.266Z,26.33
2018-04-10T03:32:42.522Z,21.20
2018-04-10T03:35:10.779Z,23.70
2018-04-10T03:37:39.804Z,23.90
2018-04-10T03:40:08.057Z,26.33
2018-04-10T03:42:37.084Z,28.07
2018-04-10T03:45:05.339Z,28.47
2018-04-10T03:47:33.599Z,26.47
2018-04-10T03:50:01.862Z,27.67
2018-04-10T03:52:30.891Z,26.00
2018-04-10T03:54:59.141Z,24.50
2018-04-10T03:57:28.166Z,31.17
2018-04-10T03:59:56.414Z,30.07
2018-04-10T04:02:24.675Z,26.67
2018-04-10T04:04:53.704Z,34.90
2018-04-10T04:07:21.959Z,27.30
2018-04-10T04:09:50.226Z,19.93
2018-04-10T04:12:19.238Z,30.33
2018-04-10T04:14:47.500Z,26.90
2018-04-10T04:17:33.417Z,25.77
2018-04-10T04:20:19.481Z,28.30
2018-04-10T04:22:48.495Z,31.63
2018-04-10T04:25:16.749Z,30.97
2018-04-10T04:27:45.759Z,27.87
2018-04-10T04:30:14.015Z,34.57
2018-04-10T04:32:43.036Z,34.27
2018-04-10T04:35:11.278Z,39.67
2018-04-10T04:37:40.300Z,42.67
2018-04-10T04:40:08.557Z,36.37
2018-04-10T04:42:37.572Z,31.83
2018-04-10T04:45:05.845Z,26.40
2018-04-10T04:47:34.088Z,42.30
2018-04-10T04:50:03.123Z,30.77
2018-04-10T04:52:31.375Z,27.80
2018-04-10T04:54:59.622Z,24.97
2018-04-10T04:57:27.884Z,33.87
2018-04-10T04:59:56.132Z,28.33
2018-04-10T05:02:24.392Z,34.87
2018-04-10T05:04:52.635Z,32.90
2018-04-10T05:07:21.660Z,28.90
2018-04-10T05:09:49.910Z,37.10
2018-04-10T05:12:18.927Z,40.10
2018-04-10T05:14:47.184Z,34.03
2018-04-10T05:17:16.208Z,33.13
2018-04-10T05:19:44.456Z,32.47
2018-04-10T05:22:13.472Z,31.33
2018-04-10T05:24:41.724Z,35.73
2018-04-10T05:27:10.748Z,31.83
2018-04-10T05:29:39.005Z,28.53
2018-04-10T05:32:07.274Z,29.03
2018-04-10T05:34:35.536Z,23.53
2018-04-10T05:37:04.583Z,31.93
2018-04-10T05:39:32.841Z,26.53
2018-04-10T05:42:01.093Z,19.47
2018-04-10T05:44:29.355Z,19.43
2018-04-10T05:46:58.384Z,25.60
2018-04-10T05:49:26.751Z,21.00
2018-04-10T05:51:55.012Z,29.37
2018-04-10T05:54:24.036Z,24.90
2018-04-10T05:56:52.288Z,19.53
2018-04-10T05:59:20.551Z,25.10
2018-04-10T06:01:49.574Z,21.83
2018-04-10T06:04:17.836Z,21.80
2018-04-10T06:06:46.092Z,25.13
2018-04-10T06:09:15.126Z,24.40
2018-04-10T06:11:43.377Z,17.53
2018-04-10T06:14:11.640Z,21.17
2018-04-10T06:16:40.671Z,19.97
2018-04-10T06:19:08.923Z,19.80
2018-04-10T06:21:37.186Z,20.30
2018-04-10T06:24:06.204Z,18.40
2018-04-10T06:26:34.472Z,18.80
2018-04-10T06:29:02.730Z,21.37
2018-04-10T06:31:31.753Z,18.70
2018-04-10T06:34:00.012Z,20.80
2018-04-10T06:36:28.265Z,20.73
2018-04-10T06:38:56.514Z,23.70
2018-04-10T06:41:24.780Z,19.13
2018-04-10T06:43:53.047Z,18.50
2018-04-10T06:46:21.316Z,21.43
2018-04-10T06:48:49.567Z,26.90
2018-04-10T06:51:17.824Z,30.53
2018-04-10T06:53:46.848Z,24.73
2018-04-10T06:56:15.125Z,21.60
2018-04-10T06:58:43.386Z,27.67
2018-04-10T07:01:11.637Z,21.20
2018-04-10T07:03:39.894Z,25.43
2018-04-10T07:06:08.140Z,23.10
2018-04-10T07:08:36.396Z,22.47
2018-04-10T07:11:04.642Z,21.17
2018-04-10T07:13:33.663Z,22.50
2018-04-10T07:16:01.913Z,21.63
2018-04-10T07:18:30.947Z,20.47
2018-04-10T07:20:59.230Z,20.73
2018-04-10T07:23:27.468Z,17.83
2018-04-10T07:25:56.496Z,16.93
2018-04-10T07:28:24.750Z,19.53
2018-04-10T07:30:53.015Z,19.40
2018-04-10T07:33:22.028Z,22.23
2018-04-10T07:35:50.377Z,17.60
2018-04-10T07:38:19.395Z,17.43
2018-04-10T07:40:47.659Z,19.20
2018-04-10T07:43:15.916Z,23.70
2018-04-10T07:45:44.945Z,23.13
2018-04-10T07:48:13.197Z,20.47
2018-04-10T07:50:42.218Z,18.00
2018-04-10T07:53:10.459Z,25.93
2018-04-10T07:55:39.483Z,20.73
2018-04-10T07:58:07.731Z,23.57
2018-04-10T08:00:36.762Z,21.83
2018-04-10T08:03:04.999Z,21.40
2018-04-10T08:05:34.032Z,19.87
2018-04-10T08:08:02.284Z,22.93
2018-04-10T08:10:30.560Z,20.20
2018-04-10T08:12:58.807Z,27.63
2018-04-10T08:15:27.831Z,17.97
2018-04-10T08:17:56.083Z,17.80
2018-04-10T08:20:25.111Z,19.63
2018-04-10T08:22:53.375Z,21.87
2018-04-10T08:25:21.621Z,19.13
2018-04-10T08:27:49.883Z,22.20
2018-04-10T08:30:18.132Z,22.60
2018-04-10T08:32:46.391Z,23.27
2018-04-10T08:35:14.645Z,17.43
2018-04-10T08:37:42.900Z,21.13
2018-04-10T08:40:11.912Z,17.70
2018-04-10T08:42:40.175Z,16.77
2018-04-10T08:45:09.194Z,23.60
2018-04-10T08:47:37.449Z,18.50
2018-04-10T08:50:06.464Z,21.00
2018-04-10T08:52:34.721Z,19.37
2018-04-10T08:55:02.970Z,15.30
2018-04-10T08:57:31.224Z,16.13
2018-04-10T08:59:59.476Z,17.60
2018-04-10T09:02:27.743Z,15.17
2018-04-10T09:04:55.988Z,17.40
2018-04-10T09:07:25.012Z,17.10
2018-04-10T09:09:53.255Z,16.70
2018-04-10T09:12:22.277Z,18.87
2018-04-10T09:14:50.536Z,17.87
2018-04-10T09:17:19.564Z,19.13
2018-04-10T09:19:47.807Z,19.80
2018-04-10T09:22:16.061Z,14.37
2018-04-10T09:24:45.114Z,20.20
2018-04-10T09:27:13.392Z,16.13
2018-04-10T09:29:41.644Z,14.80
2018-04-10T09:32:09.892Z,16.77
2018-04-10T09:34:38.916Z,15.67
2018-04-10T09:37:07.160Z,16.80
2018-04-10T09:39:36.181Z,17.37
2018-04-10T09:42:04.478Z,17.43
2018-04-10T09:44:32.695Z,22.20
2018-04-10T09:47:01.716Z,17.47
2018-04-10T09:49:29.968Z,14.07
2018-04-10T09:51:58.985Z,13.03
2018-04-10T09:54:27.239Z,17.50
2018-04-10T09:56:56.268Z,13.60
2018-04-10T09:59:24.531Z,21.03
2018-04-10T10:01:52.780Z,12.23
2018-04-10T10:04:21.821Z,11.67
2018-04-10T10:06:50.069Z,15.40
2018-04-10T10:09:18.323Z,17.93
2018-04-10T10:11:46.576Z,12.27
2018-04-10T10:14:14.823Z,12.27
2018-04-10T10:16:43.088Z,15.40
2018-04-10T10:19:11.340Z,16.30
2018-04-10T10:21:40.359Z,14.37
2018-04-10T10:24:08.604Z,15.63
2018-04-10T10:26:37.630Z,15.63
2018-04-10T10:29:05.876Z,12.53
2018-04-10T10:31:34.904Z,15.77
2018-04-10T10:34:03.157Z,14.47
2018-04-10T10:36:31.421Z,13.83
2018-04-10T10:39:00.450Z,18.53
2018-04-10T10:41:28.704Z,15.77
2018-04-10T10:43:56.953Z,18.67
2018-04-10T10:46:25.987Z,14.07
2018-04-10T10:48:54.235Z,14.00
2018-04-10T10:51:22.495Z,14.10
2018-04-10T10:53:51.514Z,16.73
2018-04-10T10:56:19.773Z,15.03
2018-04-10T10:58:48.783Z,16.97
2018-04-10T11:01:17.045Z,17.77
2018-04-10T11:03:46.061Z,18.93
2018-04-10T11:06:14.322Z,22.40
2018-04-10T11:08:42.575Z,19.90
2018-04-10T11:11:11.612Z,26.90
2018-04-10T11:13:39.848Z,21.33
2018-04-10T11:16:08.861Z,20.83
2018-04-10T11:18:37.125Z,19.07
2018-04-10T11:21:06.155Z,21.77
2018-04-10T11:23:34.420Z,18.83
2018-04-10T11:26:02.667Z,22.27
2018-04-10T11:28:31.691Z,19.03
2018-04-10T11:30:59.950Z,26.27
2018-04-10T11:33:28.200Z,24.87
2018-04-10T11:35:57.222Z,22.10
2018-04-10T11:38:25.487Z,20.43
2018-04-10T11:40:54.500Z,21.87
2018-04-10T11:43:22.764Z,21.60
2018-04-10T11:45:51.012Z,24.97
2018-04-10T11:48:19.274Z,21.93
2018-04-10T11:50:47.519Z,21.43
2018-04-10T11:53:15.775Z,22.77
2018-04-10T11:55:44.028Z,22.97
2018-04-10T11:58:13.044Z,22.97
2018-04-10T12:00:41.289Z,21.23
2018-04-10T12:03:10.312Z,23.73
2018-04-10T12:05:38.569Z,22.07
2018-04-10T12:08:07.616Z,21.27
2018-04-10T12:10:35.844Z,18.83
2018-04-10T12:13:04.100Z,28.00
2018-04-10T12:15:33.115Z,23.70
2018-04-10T12:18:01.377Z,26.03
2018-04-10T12:20:30.392Z,21.90
2018-04-10T12:22:58.640Z,17.53
2018-04-10T12:25:27.659Z,23.17
2018-04-10T12:27:55.912Z,25.70
2018-04-10T12:30:24.933Z,23.10
2018-04-10T12:32:53.179Z,20.33
2018-04-10T12:35:22.207Z,21.60
2018-04-10T12:37:50.460Z,21.97
2018-04-10T12:40:18.711Z,28.00
2018-04-10T12:42:46.968Z,27.37
2018-04-10T12:45:15.219Z,21.70
2018-04-10T12:47:43.472Z,20.60
2018-04-10T12:50:11.730Z,21.17
2018-04-10T12:52:40.764Z,22.87
2018-04-10T12:55:09.000Z,26.10
2018-04-10T12:57:38.019Z,23.23
2018-04-10T13:00:06.283Z,17.50
2018-04-10T13:02:34.528Z,21.90
2018-04-10T13:05:03.553Z,21.80
2018-04-10T13:07:31.843Z,26.13
2018-04-10T13:10:00.823Z,23.17
2018-04-10T13:12:29.073Z,24.20
2018-04-10T13:14:58.097Z,30.33
2018-04-10T13:17:26.352Z,23.20
2018-04-10T13:19:55.391Z,30.23
2018-04-10T13:22:23.634Z,27.03
2018-04-10T13:24:51.884Z,31.27
2018-04-10T13:27:20.910Z,21.83
2018-04-10T13:29:49.155Z,28.73
2018-04-10T13:32:18.179Z,21.90
2018-04-10T13:34:46.435Z,29.77
2018-04-10T13:37:14.691Z,25.63
2018-04-10T13:39:43.704Z,22.33
2018-04-10T13:42:11.963Z,27.63
2018-04-10T13:44:40.979Z,30.63
2018-04-10T13:47:09.238Z,37.57
2018-04-10T13:49:38.248Z,29.70
2018-04-10T13:52:06.514Z,29.10
2018-04-10T13:54:35.524Z,38.57
2018-04-10T13:57:03.779Z,26.73
2018-04-10T13:59:32.849Z,25.60
2018-04-10T14:02:01.069Z,31.33
2018-04-10T14:04:29.320Z,25.00
2018-04-10T14:06:58.342Z,29.20
2018-04-10T14:09:26.592Z,32.37
2018-04-10T14:11:55.604Z,29.40
2018-04-10T14:14:23.867Z,29.17
2018-04-10T14:16:52.888Z,34.27
2018-04-10T14:19:21.136Z,28.83
2018-04-10T14:21:49.412Z,33.77
2018-04-10T14:24:17.673Z,26.97
2018-04-10T14:26:46.685Z,29.97
2018-04-10T14:29:14.939Z,35.00
2018-04-10T14:31:43.963Z,34.00
2018-04-10T14:34:12.222Z,33.30
2018-04-10T14:36:41.228Z,28.17
2018-04-10T14:39:09.485Z,29.00
2018-04-10T14:41:38.500Z,26.10
2018-04-10T14:44:06.759Z,32.10
2018-04-10T14:46:35.016Z,33.40
2018-04-10T14:49:04.047Z,29.13
2018-04-10T14:51:32.299Z,26.83
2018-04-10T14:54:01.317Z,30.60
2018-04-10T14:56:29.564Z,23.40
2018-04-10T14:58:58.591Z,30.13
2018-04-10T15:01:26.841Z,31.43
2018-04-10T15:03:55.862Z,29.33
2018-04-10T15:06:24.117Z,32.77
2018-04-10T15:08:52.416Z,31.47
2018-04-10T15:11:21.390Z,28.90
2018-04-10T15:13:49.647Z,32.80
2018-04-10T15:16:18.659Z,30.47
2018-04-10T15:18:46.919Z,28.33
2018-04-10T15:21:15.171Z,32.40
2018-04-10T15:23:43.453Z,31.90
2018-04-10T15:26:11.714Z,33.93
2018-04-10T15:28:39.994Z,32.80
2018-04-10T15:31:08.235Z,32.43
2018-04-10T15:33:36.485Z,27.90
2018-04-10T15:36:04.740Z,30.73
2018-04-10T15:38:33.751Z,32.87
2018-04-10T15:41:02.018Z,29.90
2018-04-10T15:43:31.023Z,31.50
2018-04-10T15:45:59.281Z,28.60
2018-04-10T15:48:28.292Z,32.33
2018-04-10T15:50:56.542Z,31.10
2018-04-10T15:53:25.565Z,34.37
2018-04-10T15:55:53.823Z,29.13
2018-04-10T15:58:22.837Z,37.13
2018-04-10T16:00:51.108Z,34.70
2018-04-10T16:03:19.356Z,31.13
2018-04-10T16:05:47.611Z,24.67
2018-04-10T16:08:15.863Z,27.17
2018-04-10T16:10:44.126Z,22.97
2018-04-10T16:13:12.367Z,22.00
2018-04-10T16:15:40.630Z,24.03
2018-04-10T16:18:09.652Z,24.20
2018-04-10T16:20:37.899Z,21.67
2018-04-10T16:23:06.157Z,24.60
2018-04-10T16:25:34.406Z,25.37
2018-04-10T16:28:02.662Z,24.40
2018-04-10T16:30:30.914Z,22.60
2018-04-10T16:32:59.940Z,30.07
2018-04-10T16:35:28.187Z,23.27
2018-04-10T16:37:57.356Z,28.23
2018-04-10T16:40:25.603Z,27.27
2018-04-10T16:42:53.860Z,28.83
2018-04-10T16:45:22.110Z,27.03
2018-04-10T16:47:51.139Z,28.00
2018-04-10T16:50:19.388Z,25.07
2018-04-10T16:52:47.659Z,160.63
2018-04-10T16:55:15.910Z,30.20
2018-04-10T16:57:45.173Z,26.47
2018-04-10T17:00:13.512Z,29.77
2018-04-10T17:02:41.796Z,28.00
2018-04-10T17:05:10.055Z,43.77
2018-04-10T17:07:39.063Z,23.20
2018-04-10T17:10:07.319Z,30.97
2018-04-10T17:12:36.382Z,29.30
2018-04-10T17:15:04.612Z,19.83
2018-04-10T17:17:32.853Z,21.37
2018-04-10T17:20:01.875Z,23.77
2018-04-10T17:22:30.127Z,22.50
2018-04-10T17:24:59.195Z,23.53
2018-04-10T17:27:27.415Z,26.77
2018-04-10T17:29:55.684Z,23.40
2018-04-10T17:32:23.970Z,19.10
2018-04-10T17:34:52.220Z,18.00
2018-04-10T17:37:21.239Z,12.37
2018-04-10T17:39:49.492Z,9.23
2018-04-10T17:42:18.500Z,8.93
2018-04-10T17:44:46.752Z,10.70
2018-04-10T17:47:15.011Z,10.50
2018-04-10T17:49:43.267Z,12.87
2018-04-10T17:52:11.514Z,7.47
2018-04-10T17:54:39.782Z,8.13
2018-04-10T17:57:08.029Z,10.80
2018-04-10T17:59:36.276Z,8.40
2018-04-10T18:02:04.526Z,9.20
2018-04-10T18:04:32.789Z,13.57
2018-04-10T18:07:01.039Z,7.50
2018-04-10T18:09:30.049Z,10.80
2018-04-10T18:11:58.306Z,7.50
2018-04-10T18:14:27.327Z,10.63
2018-04-10T18:16:55.575Z,7.93
2018-04-10T18:19:23.816Z,6.30
2018-04-10T18:21:52.080Z,7.53
2018-04-10T18:24:20.320Z,7.87
2018-04-10T18:26:48.571Z,6.77
2018-04-10T18:29:16.817Z,5.23
2018-04-10T18:31:45.068Z,5.23
2018-04-10T18:34:13.315Z,7.80
2018-04-10T18:36:42.333Z,6.10
2018-04-10T18:39:10.576Z,8.30
2018-04-10T18:41:39.688Z,16.03
2018-04-10T18:44:07.840Z,5.23
2018-04-10T18:46:36.860Z,4.67
2018-04-10T18:49:05.104Z,5.80
2018-04-10T18:51:33.352Z,5.23
2018-04-10T18:54:01.601Z,3.13
2018-04-10T18:56:29.859Z,5.47
2018-04-10T18:58:58.096Z,5.30
2018-04-10T19:01:26.364Z,9.30
2018-04-10T19:03:54.679Z,6.30
2018-04-10T19:06:22.885Z,5.10
2018-04-10T19:08:51.137Z,7.03
2018-04-10T19:11:19.396Z,12.13
2018-04-10T19:13:48.421Z,13.70
2018-04-10T19:16:17.389Z,17.03
2018-04-10T19:18:45.653Z,15.43
2018-04-10T19:21:13.988Z,8.70
2018-04-10T19:23:42.450Z,9.53
2018-04-10T19:26:10.798Z,10.17
2018-04-10T19:28:39.404Z,10.53
2018-04-10T19:31:07.792Z,8.57
2018-04-10T19:33:36.175Z,11.23
2018-04-10T19:36:04.606Z,12.40
2018-04-10T19:38:33.065Z,10.07
2018-04-10T19:41:02.545Z,15.17
2018-04-10T19:43:30.811Z,16.93
2018-04-10T19:45:59.063Z,22.33
2018-04-10T19:48:27.349Z,10.57
2018-04-10T19:50:55.600Z,11.63
2018-04-10T19:53:24.688Z,9.80
2018-04-10T19:55:53.703Z,12.23
2018-04-10T19:58:21.972Z,10.10
2018-04-10T20:00:50.233Z,8.00
2018-04-10T20:03:19.434Z,10.37
2018-04-10T20:05:48.456Z,10.90
2018-04-10T20:08:16.712Z,7.57
2018-04-10T20:10:45.013Z,8.00
2018-04-10T20:13:13.396Z,6.00
2018-04-10T20:15:41.678Z,5.60
2018-04-10T20:18:09.888Z,6.27
2018-04-10T20:20:38.156Z,3.63
2018-04-10T20:23:06.399Z,3.87
2018-04-10T20:25:34.652Z,9.60
2018-04-10T20:28:02.901Z,6.67
2018-04-10T20:30:31.912Z,3.47
2018-04-10T20:33:00.153Z,5.40
2018-04-10T20:35:28.418Z,6.10
2018-04-10T20:37:56.668Z,6.43
2018-04-10T20:40:24.913Z,4.63
2018-04-10T20:42:53.911Z,5.60
2018-04-10T20:45:22.166Z,5.40
2018-04-10T20:47:51.182Z,4.73
2018-04-10T20:50:19.435Z,5.27
2018-04-10T20:52:48.443Z,4.83
2018-04-10T20:55:16.697Z,5.30
2018-04-10T20:57:45.712Z,6.90
2018-04-10T21:00:14.729Z,5.00
2018-04-10T21:02:42.973Z,6.93
2018-04-10T21:05:11.983Z,3.37
2018-04-10T21:07:40.310Z,11.60
2018-04-10T21:10:08.555Z,6.20
2018-04-10T21:12:36.796Z,5.20
2018-04-10T21:15:05.809Z,5.47
2018-04-10T21:17:34.048Z,5.20
2018-04-10T21:20:02.299Z,5.23
2018-04-10T21:22:30.535Z,4.80
2018-04-10T21:24:58.791Z,4.80
2018-04-10T21:27:27.797Z,6.13
2018-04-10T21:29:56.174Z,4.27
2018-04-10T21:32:25.320Z,5.47
2018-04-10T21:34:53.571Z,5.43
2018-04-10T21:37:21.815Z,8.10
2018-04-10T21:39:50.131Z,5.67
2018-04-10T21:42:18.408Z,5.10
2018-04-10T21:44:46.655Z,11.40
2018-04-10T21:47:14.895Z,8.07
2018-04-10T21:49:43.251Z,6.87
2018-04-10T21:52:11.551Z,6.17
2018-04-10T21:54:39.875Z,9.40
2018-04-10T21:57:08.167Z,6.93
2018-04-10T21:59:36.404Z,6.50
2018-04-10T22:02:04.655Z,6.90
2018-04-10T22:04:32.883Z,8.67
2018-04-10T22:07:01.132Z,5.90
2018-04-10T22:09:29.368Z,8.10
2018-04-10T22:11:57.626Z,6.43
2018-04-10T22:14:25.859Z,10.50
2018-04-10T22:16:54.118Z,10.27
2018-04-10T22:19:23.120Z,5.87
2018-04-10T22:21:51.366Z,6.90
2018-04-10T22:24:19.619Z,7.30
2018-04-10T22:26:47.865Z,9.00
2018-04-10T22:29:16.105Z,5.60
2018-04-10T22:31:45.139Z,6.30
2018-04-10T22:34:13.332Z,8.43
2018-04-10T22:36:41.573Z,8.23
2018-04-10T22:39:09.831Z,8.20
2018-04-10T22:41:38.075Z,8.63
2018-04-10T22:44:07.101Z,8.73
2018-04-10T22:46:35.341Z,10.83
2018-04-10T22:49:04.358Z,7.50
2018-04-10T22:51:32.619Z,9.47
2018-04-10T22:54:01.679Z,11.87
2018-04-10T22:56:29.932Z,8.37
2018-04-10T22:58:58.190Z,10.67
2018-04-10T23:01:26.500Z,10.00
2018-04-10T23:03:54.761Z,11.63
2018-04-10T23:06:23.032Z,14.90
2018-04-10T23:08:51.280Z,13.57
2018-04-10T23:11:20.289Z,12.83
2018-04-10T23:13:48.550Z,9.03
2018-04-10T23:16:17.575Z,10.67
2018-04-10T23:18:45.827Z,8.80
2018-04-10T23:21:14.842Z,8.97
2018-04-10T23:23:43.080Z,9.23
2018-04-10T23:26:12.106Z,10.50
2018-04-10T23:28:40.351Z,9.13
2018-04-10T23:31:08.603Z,11.60
2018-04-10T23:33:36.843Z,9.60
2018-04-10T23:36:05.087Z,10.43
2018-04-10T23:38:34.101Z,10.70
2018-04-10T23:41:02.352Z,9.03
2018-04-10T23:43:30.595Z,7.97
2018-04-10T23:45:58.835Z,9.23
2018-04-10T23:48:27.085Z,9.40
2018-04-10T23:50:56.101Z,10.10
2018-04-10T23:53:24.357Z,10.37
2018-04-10T23:55:52.603Z,12.80
2018-04-10T23:58:20.852Z,12.70
